sensor_id;sensor_type;location;lat;lon;timestamp;P1;durP1;ratioP1;P2;durP2;ratioP2
18574;SDS011;9417;16.484;102.872;2023-08-24T00:00:04;14.75;;;10.15;;
18574;SDS011;9417;16.484;102.872;2023-08-24T00:02:12;14.32;;;9.40;;
18574;SDS011;9417;16.484;102.872;2023-08-24T00:04:20;14.60;;;10.07;;
18574;SDS011;9417;16.484;102.872;2023-08-24T00:06:28;18.95;;;16.95;;
18574;SDS011;9417;16.484;102.872;2023-08-24T00:08:36;19.40;;;17.40;;
18574;SDS011;9417;16.484;102.872;2023-08-24T00:10:45;19.80;;;15.82;;
18574;SDS011;9417;16.484;102.872;2023-08-24T00:12:53;11.05;;;6.95;;
18574;SDS011;9417;16.484;102.872;2023-08-24T00:14:59;10.43;;;7.18;;
18574;SDS011;9417;16.484;102.872;2023-08-24T00:17:07;12.05;;;7.88;;
18574;SDS011;9417;16.484;102.872;2023-08-24T00:19:14;14.55;;;7.90;;
18574;SDS011;9417;16.484;102.872;2023-08-24T00:21:22;8.48;;;6.97;;
18574;SDS011;9417;16.484;102.872;2023-08-24T00:23:29;11.60;;;6.30;;
18574;SDS011;9417;16.484;102.872;2023-08-24T00:25:37;9.52;;;6.72;;
18574;SDS011;9417;16.484;102.872;2023-08-24T00:27:46;13.82;;;7.03;;
18574;SDS011;9417;16.484;102.872;2023-08-24T00:29:54;8.43;;;6.57;;
18574;SDS011;9417;16.484;102.872;2023-08-24T00:32:03;10.18;;;6.45;;
18574;SDS011;9417;16.484;102.872;2023-08-24T00:34:12;8.23;;;6.72;;
18574;SDS011;9417;16.484;102.872;2023-08-24T00:36:20;7.93;;;6.93;;
18574;SDS011;9417;16.484;102.872;2023-08-24T00:38:29;18.60;;;16.90;;
18574;SDS011;9417;16.484;102.872;2023-08-24T00:40:36;18.92;;;17.13;;
18574;SDS011;9417;16.484;102.872;2023-08-24T00:42:44;9.38;;;5.72;;
18574;SDS011;9417;16.484;102.872;2023-08-24T00:44:53;11.20;;;6.35;;
18574;SDS011;9417;16.484;102.872;2023-08-24T00:47:00;8.80;;;6.43;;
18574;SDS011;9417;16.484;102.872;2023-08-24T00:49:08;8.02;;;6.25;;
18574;SDS011;9417;16.484;102.872;2023-08-24T00:51:15;7.78;;;6.00;;
18574;SDS011;9417;16.484;102.872;2023-08-24T00:53:23;9.70;;;6.45;;
18574;SDS011;9417;16.484;102.872;2023-08-24T00:55:32;9.10;;;6.05;;
18574;SDS011;9417;16.484;102.872;2023-08-24T00:57:40;11.15;;;5.97;;
18574;SDS011;9417;16.484;102.872;2023-08-24T00:59:50;10.52;;;8.32;;
18574;SDS011;9417;16.484;102.872;2023-08-24T01:01:56;16.30;;;14.70;;
18574;SDS011;9417;16.484;102.872;2023-08-24T01:04:05;10.80;;;6.07;;
18574;SDS011;9417;16.484;102.872;2023-08-24T01:06:14;7.82;;;5.80;;
18574;SDS011;9417;16.484;102.872;2023-08-24T01:08:22;10.57;;;6.20;;
18574;SDS011;9417;16.484;102.872;2023-08-24T01:10:30;8.20;;;5.30;;
18574;SDS011;9417;16.484;102.872;2023-08-24T01:12:50;7.90;;;5.88;;
18574;SDS011;9417;16.484;102.872;2023-08-24T01:15:07;8.02;;;5.90;;
18574;SDS011;9417;16.484;102.872;2023-08-24T01:17:21;10.23;;;5.80;;
18574;SDS011;9417;16.484;102.872;2023-08-24T01:19:34;7.88;;;5.95;;
18574;SDS011;9417;16.484;102.872;2023-08-24T01:21:44;10.07;;;5.80;;
18574;SDS011;9417;16.484;102.872;2023-08-24T01:23:53;10.50;;;6.07;;
18574;SDS011;9417;16.484;102.872;2023-08-24T01:26:14;10.15;;;6.20;;
18574;SDS011;9417;16.484;102.872;2023-08-24T01:28:24;10.82;;;6.03;;
18574;SDS011;9417;16.484;102.872;2023-08-24T01:30:32;10.27;;;6.05;;
18574;SDS011;9417;16.484;102.872;2023-08-24T01:32:41;10.10;;;6.45;;
18574;SDS011;9417;16.484;102.872;2023-08-24T01:34:49;7.75;;;5.97;;
18574;SDS011;9417;16.484;102.872;2023-08-24T01:36:56;8.68;;;6.28;;
18574;SDS011;9417;16.484;102.872;2023-08-24T01:39:05;7.35;;;5.68;;
18574;SDS011;9417;16.484;102.872;2023-08-24T01:41:19;8.30;;;5.95;;
18574;SDS011;9417;16.484;102.872;2023-08-24T01:43:30;10.23;;;5.93;;
18574;SDS011;9417;16.484;102.872;2023-08-24T01:45:42;9.07;;;5.45;;
18574;SDS011;9417;16.484;102.872;2023-08-24T01:47:54;10.32;;;5.93;;
18574;SDS011;9417;16.484;102.872;2023-08-24T01:50:02;7.28;;;5.05;;
18574;SDS011;9417;16.484;102.872;2023-08-24T01:52:10;7.97;;;5.15;;
18574;SDS011;9417;16.484;102.872;2023-08-24T01:54:19;8.95;;;5.80;;
18574;SDS011;9417;16.484;102.872;2023-08-24T01:56:31;8.40;;;5.45;;
18574;SDS011;9417;16.484;102.872;2023-08-24T01:58:38;9.52;;;4.82;;
18574;SDS011;9417;16.484;102.872;2023-08-24T02:00:46;7.68;;;4.97;;
18574;SDS011;9417;16.484;102.872;2023-08-24T02:02:53;9.90;;;5.45;;
18574;SDS011;9417;16.484;102.872;2023-08-24T02:04:59;9.02;;;5.22;;
18574;SDS011;9417;16.484;102.872;2023-08-24T02:07:07;8.60;;;5.70;;
18574;SDS011;9417;16.484;102.872;2023-08-24T02:09:15;11.35;;;6.10;;
18574;SDS011;9417;16.484;102.872;2023-08-24T02:11:23;8.07;;;5.30;;
18574;SDS011;9417;16.484;102.872;2023-08-24T02:13:32;7.30;;;5.60;;
18574;SDS011;9417;16.484;102.872;2023-08-24T02:15:39;8.60;;;5.47;;
18574;SDS011;9417;16.484;102.872;2023-08-24T02:17:47;9.82;;;5.75;;
18574;SDS011;9417;16.484;102.872;2023-08-24T02:19:55;9.30;;;5.57;;
18574;SDS011;9417;16.484;102.872;2023-08-24T02:22:03;10.20;;;5.57;;
18574;SDS011;9417;16.484;102.872;2023-08-24T02:24:12;6.53;;;5.13;;
18574;SDS011;9417;16.484;102.872;2023-08-24T02:26:20;11.18;;;5.90;;
18574;SDS011;9417;16.484;102.872;2023-08-24T02:28:27;15.05;;;13.23;;
18574;SDS011;9417;16.484;102.872;2023-08-24T02:30:38;17.33;;;15.48;;
18574;SDS011;9417;16.484;102.872;2023-08-24T02:32:45;17.92;;;15.27;;
18574;SDS011;9417;16.484;102.872;2023-08-24T02:34:53;6.32;;;4.82;;
18574;SDS011;9417;16.484;102.872;2023-08-24T02:37:00;14.88;;;5.57;;
18574;SDS011;9417;16.484;102.872;2023-08-24T02:39:08;7.07;;;4.95;;
18574;SDS011;9417;16.484;102.872;2023-08-24T02:41:15;7.22;;;5.18;;
18574;SDS011;9417;16.484;102.872;2023-08-24T02:43:23;10.10;;;5.68;;
18574;SDS011;9417;16.484;102.872;2023-08-24T02:45:29;7.68;;;5.28;;
18574;SDS011;9417;16.484;102.872;2023-08-24T02:47:39;9.18;;;5.70;;
18574;SDS011;9417;16.484;102.872;2023-08-24T02:49:46;9.27;;;5.10;;
18574;SDS011;9417;16.484;102.872;2023-08-24T02:51:54;7.90;;;5.47;;
18574;SDS011;9417;16.484;102.872;2023-08-24T02:54:01;6.43;;;4.80;;
18574;SDS011;9417;16.484;102.872;2023-08-24T02:56:09;7.43;;;5.25;;
18574;SDS011;9417;16.484;102.872;2023-08-24T02:58:17;6.55;;;5.22;;
18574;SDS011;9417;16.484;102.872;2023-08-24T03:00:24;7.40;;;4.75;;
18574;SDS011;9417;16.484;102.872;2023-08-24T03:02:32;8.27;;;5.35;;
18574;SDS011;9417;16.484;102.872;2023-08-24T03:04:41;7.78;;;5.13;;
18574;SDS011;9417;16.484;102.872;2023-08-24T03:06:49;8.48;;;5.50;;
18574;SDS011;9417;16.484;102.872;2023-08-24T03:08:56;8.27;;;5.38;;
18574;SDS011;9417;16.484;102.872;2023-08-24T03:11:08;8.07;;;5.22;;
18574;SDS011;9417;16.484;102.872;2023-08-24T03:13:15;6.90;;;4.88;;
18574;SDS011;9417;16.484;102.872;2023-08-24T03:15:23;6.57;;;4.80;;
18574;SDS011;9417;16.484;102.872;2023-08-24T03:17:31;6.90;;;5.18;;
18574;SDS011;9417;16.484;102.872;2023-08-24T03:19:38;8.85;;;5.22;;
18574;SDS011;9417;16.484;102.872;2023-08-24T03:21:48;8.98;;;5.25;;
18574;SDS011;9417;16.484;102.872;2023-08-24T03:23:55;7.07;;;5.15;;
18574;SDS011;9417;16.484;102.872;2023-08-24T03:26:03;6.15;;;5.00;;
18574;SDS011;9417;16.484;102.872;2023-08-24T03:28:11;10.07;;;5.53;;
18574;SDS011;9417;16.484;102.872;2023-08-24T03:30:18;6.13;;;5.10;;
18574;SDS011;9417;16.484;102.872;2023-08-24T03:32:26;7.40;;;5.10;;
18574;SDS011;9417;16.484;102.872;2023-08-24T03:34:34;9.95;;;5.45;;
18574;SDS011;9417;16.484;102.872;2023-08-24T03:36:43;11.10;;;10.07;;
18574;SDS011;9417;16.484;102.872;2023-08-24T03:38:51;10.45;;;9.55;;
18574;SDS011;9417;16.484;102.872;2023-08-24T03:41:01;11.32;;;9.45;;
18574;SDS011;9417;16.484;102.872;2023-08-24T03:43:10;10.68;;;9.63;;
18574;SDS011;9417;16.484;102.872;2023-08-24T03:45:18;5.85;;;4.60;;
18574;SDS011;9417;16.484;102.872;2023-08-24T03:47:26;10.93;;;7.07;;
18574;SDS011;9417;16.484;102.872;2023-08-24T03:49:34;10.20;;;7.32;;
18574;SDS011;9417;16.484;102.872;2023-08-24T03:51:43;18.50;;;7.30;;
18574;SDS011;9417;16.484;102.872;2023-08-24T03:53:51;33.35;;;12.20;;
18574;SDS011;9417;16.484;102.872;2023-08-24T03:55:59;10.50;;;6.13;;
18574;SDS011;9417;16.484;102.872;2023-08-24T03:58:06;8.07;;;4.55;;
18574;SDS011;9417;16.484;102.872;2023-08-24T04:00:14;7.00;;;5.00;;
18574;SDS011;9417;16.484;102.872;2023-08-24T04:02:22;7.10;;;4.50;;
18574;SDS011;9417;16.484;102.872;2023-08-24T04:04:30;9.25;;;4.78;;
18574;SDS011;9417;16.484;102.872;2023-08-24T04:06:38;8.73;;;4.88;;
18574;SDS011;9417;16.484;102.872;2023-08-24T04:08:49;7.50;;;5.32;;
18574;SDS011;9417;16.484;102.872;2023-08-24T04:10:58;6.82;;;4.88;;
18574;SDS011;9417;16.484;102.872;2023-08-24T04:13:06;7.20;;;4.32;;
18574;SDS011;9417;16.484;102.872;2023-08-24T04:15:13;7.47;;;4.70;;
18574;SDS011;9417;16.484;102.872;2023-08-24T04:17:21;7.47;;;4.90;;
18574;SDS011;9417;16.484;102.872;2023-08-24T04:19:28;9.52;;;4.72;;
18574;SDS011;9417;16.484;102.872;2023-08-24T04:21:37;7.72;;;4.60;;
18574;SDS011;9417;16.484;102.872;2023-08-24T04:23:45;14.60;;;5.50;;
18574;SDS011;9417;16.484;102.872;2023-08-24T04:25:54;6.95;;;5.03;;
18574;SDS011;9417;16.484;102.872;2023-08-24T04:28:02;6.78;;;4.72;;
18574;SDS011;9417;16.484;102.872;2023-08-24T04:30:10;8.10;;;4.70;;
18574;SDS011;9417;16.484;102.872;2023-08-24T04:32:18;7.18;;;4.47;;
18574;SDS011;9417;16.484;102.872;2023-08-24T04:34:26;9.50;;;4.95;;
18574;SDS011;9417;16.484;102.872;2023-08-24T04:36:33;8.10;;;4.53;;
18574;SDS011;9417;16.484;102.872;2023-08-24T04:38:41;8.30;;;4.65;;
18574;SDS011;9417;16.484;102.872;2023-08-24T04:40:52;8.80;;;6.13;;
18574;SDS011;9417;16.484;102.872;2023-08-24T04:43:01;10.40;;;6.47;;
18574;SDS011;9417;16.484;102.872;2023-08-24T04:45:09;16.27;;;9.10;;
18574;SDS011;9417;16.484;102.872;2023-08-24T04:47:18;9.25;;;7.15;;
18574;SDS011;9417;16.484;102.872;2023-08-24T04:49:26;11.13;;;6.40;;
18574;SDS011;9417;16.484;102.872;2023-08-24T04:51:34;7.60;;;5.38;;
18574;SDS011;9417;16.484;102.872;2023-08-24T04:53:40;8.55;;;5.50;;
18574;SDS011;9417;16.484;102.872;2023-08-24T04:55:47;7.70;;;5.97;;
18574;SDS011;9417;16.484;102.872;2023-08-24T04:57:56;9.75;;;4.40;;
18574;SDS011;9417;16.484;102.872;2023-08-24T05:00:04;7.68;;;3.90;;
18574;SDS011;9417;16.484;102.872;2023-08-24T05:02:16;7.72;;;4.10;;
18574;SDS011;9417;16.484;102.872;2023-08-24T05:04:23;6.80;;;5.15;;
18574;SDS011;9417;16.484;102.872;2023-08-24T05:06:31;12.15;;;5.80;;
18574;SDS011;9417;16.484;102.872;2023-08-24T05:08:39;6.35;;;4.80;;
18574;SDS011;9417;16.484;102.872;2023-08-24T05:10:46;6.25;;;4.53;;
18574;SDS011;9417;16.484;102.872;2023-08-24T05:12:56;6.55;;;5.57;;
18574;SDS011;9417;16.484;102.872;2023-08-24T05:15:04;9.70;;;6.20;;
18574;SDS011;9417;16.484;102.872;2023-08-24T05:17:12;8.70;;;6.30;;
18574;SDS011;9417;16.484;102.872;2023-08-24T05:19:20;7.07;;;5.53;;
18574;SDS011;9417;16.484;102.872;2023-08-24T05:21:30;6.55;;;5.70;;
18574;SDS011;9417;16.484;102.872;2023-08-24T05:23:38;6.68;;;4.07;;
18574;SDS011;9417;16.484;102.872;2023-08-24T05:25:45;6.70;;;6.00;;
18574;SDS011;9417;16.484;102.872;2023-08-24T05:27:53;7.38;;;5.88;;
18574;SDS011;9417;16.484;102.872;2023-08-24T05:30:03;8.73;;;6.28;;
18574;SDS011;9417;16.484;102.872;2023-08-24T05:32:11;7.00;;;5.40;;
18574;SDS011;9417;16.484;102.872;2023-08-24T05:34:18;8.13;;;5.30;;
18574;SDS011;9417;16.484;102.872;2023-08-24T05:36:26;6.97;;;5.20;;
18574;SDS011;9417;16.484;102.872;2023-08-24T05:38:33;8.30;;;6.18;;
18574;SDS011;9417;16.484;102.872;2023-08-24T05:40:43;6.90;;;5.75;;
18574;SDS011;9417;16.484;102.872;2023-08-24T05:42:52;6.20;;;5.60;;
18574;SDS011;9417;16.484;102.872;2023-08-24T05:45:02;8.80;;;5.80;;
18574;SDS011;9417;16.484;102.872;2023-08-24T05:47:09;5.97;;;5.35;;
18574;SDS011;9417;16.484;102.872;2023-08-24T05:49:17;8.45;;;6.03;;
18574;SDS011;9417;16.484;102.872;2023-08-24T05:51:24;8.10;;;5.78;;
18574;SDS011;9417;16.484;102.872;2023-08-24T05:53:32;9.93;;;5.57;;
18574;SDS011;9417;16.484;102.872;2023-08-24T05:55:40;7.82;;;6.18;;
18574;SDS011;9417;16.484;102.872;2023-08-24T05:57:48;5.65;;;5.00;;
18574;SDS011;9417;16.484;102.872;2023-08-24T05:59:56;6.03;;;5.43;;
18574;SDS011;9417;16.484;102.872;2023-08-24T06:02:15;6.93;;;3.80;;
18574;SDS011;9417;16.484;102.872;2023-08-24T06:04:22;8.25;;;4.20;;
18574;SDS011;9417;16.484;102.872;2023-08-24T06:06:30;5.20;;;4.13;;
18574;SDS011;9417;16.484;102.872;2023-08-24T06:08:37;7.45;;;4.25;;
18574;SDS011;9417;16.484;102.872;2023-08-24T06:10:45;9.85;;;4.70;;
18574;SDS011;9417;16.484;102.872;2023-08-24T06:12:53;12.70;;;4.68;;
18574;SDS011;9417;16.484;102.872;2023-08-24T06:14:59;6.38;;;4.18;;
18574;SDS011;9417;16.484;102.872;2023-08-24T06:17:08;6.80;;;4.38;;
18574;SDS011;9417;16.484;102.872;2023-08-24T06:19:17;7.63;;;4.97;;
18574;SDS011;9417;16.484;102.872;2023-08-24T06:21:25;7.45;;;4.75;;
18574;SDS011;9417;16.484;102.872;2023-08-24T06:23:33;6.88;;;4.97;;
18574;SDS011;9417;16.484;102.872;2023-08-24T06:25:41;7.55;;;4.57;;
18574;SDS011;9417;16.484;102.872;2023-08-24T06:27:48;7.43;;;4.72;;
18574;SDS011;9417;16.484;102.872;2023-08-24T06:29:56;7.25;;;4.13;;
18574;SDS011;9417;16.484;102.872;2023-08-24T06:32:04;6.28;;;4.18;;
18574;SDS011;9417;16.484;102.872;2023-08-24T06:34:11;5.93;;;3.33;;
18574;SDS011;9417;16.484;102.872;2023-08-24T06:36:21;6.53;;;4.18;;
18574;SDS011;9417;16.484;102.872;2023-08-24T06:38:28;6.68;;;3.67;;
18574;SDS011;9417;16.484;102.872;2023-08-24T06:40:36;6.63;;;3.63;;
18574;SDS011;9417;16.484;102.872;2023-08-24T06:42:45;6.75;;;3.72;;
18574;SDS011;9417;16.484;102.872;2023-08-24T06:44:52;6.22;;;3.83;;
18574;SDS011;9417;16.484;102.872;2023-08-24T06:47:00;6.90;;;3.60;;
18574;SDS011;9417;16.484;102.872;2023-08-24T06:49:08;7.10;;;3.63;;
18574;SDS011;9417;16.484;102.872;2023-08-24T06:51:15;5.72;;;3.83;;
18574;SDS011;9417;16.484;102.872;2023-08-24T06:53:24;7.72;;;3.83;;
18574;SDS011;9417;16.484;102.872;2023-08-24T06:55:32;5.60;;;4.10;;
18574;SDS011;9417;16.484;102.872;2023-08-24T06:57:40;7.20;;;4.05;;
18574;SDS011;9417;16.484;102.872;2023-08-24T06:59:48;7.45;;;4.18;;
18574;SDS011;9417;16.484;102.872;2023-08-24T07:01:56;5.97;;;4.38;;
18574;SDS011;9417;16.484;102.872;2023-08-24T07:04:03;7.72;;;5.15;;
18574;SDS011;9417;16.484;102.872;2023-08-24T07:06:11;7.43;;;4.45;;
18574;SDS011;9417;16.484;102.872;2023-08-24T07:08:18;8.02;;;4.35;;
18574;SDS011;9417;16.484;102.872;2023-08-24T07:10:28;8.73;;;4.63;;
18574;SDS011;9417;16.484;102.872;2023-08-24T07:12:35;10.73;;;5.53;;
18574;SDS011;9417;16.484;102.872;2023-08-24T07:14:44;13.43;;;5.25;;
18574;SDS011;9417;16.484;102.872;2023-08-24T07:16:52;11.77;;;5.40;;
18574;SDS011;9417;16.484;102.872;2023-08-24T07:19:00;9.68;;;5.43;;
18574;SDS011;9417;16.484;102.872;2023-08-24T07:21:08;4.80;;;3.92;;
18574;SDS011;9417;16.484;102.872;2023-08-24T07:23:18;6.25;;;4.22;;
18574;SDS011;9417;16.484;102.872;2023-08-24T07:25:27;15.18;;;5.63;;
18574;SDS011;9417;16.484;102.872;2023-08-24T07:27:35;8.98;;;4.50;;
18574;SDS011;9417;16.484;102.872;2023-08-24T07:29:43;8.10;;;4.57;;
18574;SDS011;9417;16.484;102.872;2023-08-24T07:31:50;7.90;;;4.05;;
18574;SDS011;9417;16.484;102.872;2023-08-24T07:33:58;5.78;;;4.10;;
18574;SDS011;9417;16.484;102.872;2023-08-24T07:36:05;6.15;;;3.88;;
18574;SDS011;9417;16.484;102.872;2023-08-24T07:38:13;8.15;;;4.13;;
18574;SDS011;9417;16.484;102.872;2023-08-24T07:40:21;6.30;;;4.22;;
18574;SDS011;9417;16.484;102.872;2023-08-24T07:42:29;7.72;;;4.47;;
18574;SDS011;9417;16.484;102.872;2023-08-24T07:44:36;7.25;;;3.60;;
18574;SDS011;9417;16.484;102.872;2023-08-24T07:46:44;9.25;;;3.78;;
18574;SDS011;9417;16.484;102.872;2023-08-24T07:48:51;5.88;;;3.88;;
18574;SDS011;9417;16.484;102.872;2023-08-24T07:50:59;5.78;;;4.03;;
18574;SDS011;9417;16.484;102.872;2023-08-24T07:53:07;7.30;;;4.28;;
18574;SDS011;9417;16.484;102.872;2023-08-24T07:55:14;9.65;;;4.53;;
18574;SDS011;9417;16.484;102.872;2023-08-24T07:57:21;8.70;;;4.53;;
18574;SDS011;9417;16.484;102.872;2023-08-24T07:59:31;20.15;;;13.20;;
18574;SDS011;9417;16.484;102.872;2023-08-24T08:01:39;25.88;;;17.30;;
18574;SDS011;9417;16.484;102.872;2023-08-24T08:03:46;23.83;;;17.58;;
18574;SDS011;9417;16.484;102.872;2023-08-24T08:05:54;7.90;;;4.30;;
18574;SDS011;9417;16.484;102.872;2023-08-24T08:08:02;5.65;;;4.03;;
18574;SDS011;9417;16.484;102.872;2023-08-24T08:10:10;5.85;;;4.45;;
18574;SDS011;9417;16.484;102.872;2023-08-24T08:12:17;9.23;;;4.18;;
18574;SDS011;9417;16.484;102.872;2023-08-24T08:14:26;6.32;;;4.75;;
18574;SDS011;9417;16.484;102.872;2023-08-24T08:16:35;6.95;;;4.57;;
18574;SDS011;9417;16.484;102.872;2023-08-24T08:18:43;7.80;;;4.43;;
18574;SDS011;9417;16.484;102.872;2023-08-24T08:20:51;5.95;;;4.40;;
18574;SDS011;9417;16.484;102.872;2023-08-24T08:22:59;7.15;;;4.35;;
18574;SDS011;9417;16.484;102.872;2023-08-24T08:25:06;6.40;;;4.53;;
18574;SDS011;9417;16.484;102.872;2023-08-24T08:27:15;5.90;;;4.32;;
18574;SDS011;9417;16.484;102.872;2023-08-24T08:29:23;7.75;;;4.40;;
18574;SDS011;9417;16.484;102.872;2023-08-24T08:31:31;8.32;;;5.00;;
18574;SDS011;9417;16.484;102.872;2023-08-24T08:33:41;7.82;;;4.10;;
18574;SDS011;9417;16.484;102.872;2023-08-24T08:35:48;7.38;;;4.80;;
18574;SDS011;9417;16.484;102.872;2023-08-24T08:37:56;7.07;;;4.70;;
18574;SDS011;9417;16.484;102.872;2023-08-24T08:40:03;8.57;;;4.75;;
18574;SDS011;9417;16.484;102.872;2023-08-24T08:42:15;5.60;;;4.35;;
18574;SDS011;9417;16.484;102.872;2023-08-24T08:44:22;5.90;;;4.13;;
18574;SDS011;9417;16.484;102.872;2023-08-24T08:46:34;8.18;;;5.13;;
18574;SDS011;9417;16.484;102.872;2023-08-24T08:48:43;6.90;;;5.00;;
18574;SDS011;9417;16.484;102.872;2023-08-24T08:50:52;7.38;;;4.70;;
18574;SDS011;9417;16.484;102.872;2023-08-24T08:53:01;6.90;;;4.35;;
18574;SDS011;9417;16.484;102.872;2023-08-24T08:55:09;8.95;;;5.07;;
18574;SDS011;9417;16.484;102.872;2023-08-24T08:57:16;8.55;;;4.95;;
18574;SDS011;9417;16.484;102.872;2023-08-24T08:59:26;8.38;;;5.22;;
18574;SDS011;9417;16.484;102.872;2023-08-24T09:01:34;8.52;;;4.60;;
18574;SDS011;9417;16.484;102.872;2023-08-24T09:03:43;6.28;;;4.28;;
18574;SDS011;9417;16.484;102.872;2023-08-24T09:05:52;6.63;;;4.10;;
18574;SDS011;9417;16.484;102.872;2023-08-24T09:08:00;5.32;;;3.67;;
18574;SDS011;9417;16.484;102.872;2023-08-24T09:10:08;6.05;;;4.03;;
18574;SDS011;9417;16.484;102.872;2023-08-24T09:12:15;6.00;;;4.32;;
18574;SDS011;9417;16.484;102.872;2023-08-24T09:14:23;7.13;;;4.50;;
18574;SDS011;9417;16.484;102.872;2023-08-24T09:16:31;9.25;;;4.57;;
18574;SDS011;9417;16.484;102.872;2023-08-24T09:18:42;4.97;;;3.83;;
18574;SDS011;9417;16.484;102.872;2023-08-24T09:20:53;6.65;;;4.40;;
18574;SDS011;9417;16.484;102.872;2023-08-24T09:23:01;10.88;;;4.57;;
18574;SDS011;9417;16.484;102.872;2023-08-24T09:25:09;6.38;;;4.30;;
18574;SDS011;9417;16.484;102.872;2023-08-24T09:27:16;7.35;;;4.47;;
18574;SDS011;9417;16.484;102.872;2023-08-24T09:29:24;6.97;;;4.00;;
18574;SDS011;9417;16.484;102.872;2023-08-24T09:31:35;5.13;;;4.22;;
18574;SDS011;9417;16.484;102.872;2023-08-24T09:33:43;6.05;;;4.00;;
18574;SDS011;9417;16.484;102.872;2023-08-24T09:35:53;6.38;;;4.03;;
18574;SDS011;9417;16.484;102.872;2023-08-24T09:38:17;8.20;;;4.15;;
18574;SDS011;9417;16.484;102.872;2023-08-24T09:40:25;7.88;;;4.57;;
18574;SDS011;9417;16.484;102.872;2023-08-24T09:42:34;8.50;;;4.47;;
18574;SDS011;9417;16.484;102.872;2023-08-24T09:44:43;6.88;;;4.60;;
18574;SDS011;9417;16.484;102.872;2023-08-24T09:46:51;7.43;;;4.32;;
18574;SDS011;9417;16.484;102.872;2023-08-24T09:49:00;5.07;;;4.43;;
18574;SDS011;9417;16.484;102.872;2023-08-24T09:51:08;5.13;;;3.88;;
18574;SDS011;9417;16.484;102.872;2023-08-24T09:53:17;6.60;;;4.32;;
18574;SDS011;9417;16.484;102.872;2023-08-24T09:55:26;12.27;;;6.10;;
18574;SDS011;9417;16.484;102.872;2023-08-24T09:57:36;10.20;;;5.75;;
18574;SDS011;9417;16.484;102.872;2023-08-24T09:59:44;7.50;;;4.20;;
18574;SDS011;9417;16.484;102.872;2023-08-24T10:01:57;6.45;;;3.78;;
18574;SDS011;9417;16.484;102.872;2023-08-24T10:04:09;8.23;;;3.65;;
18574;SDS011;9417;16.484;102.872;2023-08-24T10:06:18;6.88;;;3.75;;
18574;SDS011;9417;16.484;102.872;2023-08-24T10:08:26;4.78;;;3.35;;
18574;SDS011;9417;16.484;102.872;2023-08-24T10:10:34;5.90;;;3.55;;
18574;SDS011;9417;16.484;102.872;2023-08-24T10:12:47;7.05;;;3.50;;
18574;SDS011;9417;16.484;102.872;2023-08-24T10:14:59;7.00;;;4.13;;
18574;SDS011;9417;16.484;102.872;2023-08-24T10:17:08;9.63;;;3.72;;
18574;SDS011;9417;16.484;102.872;2023-08-24T10:19:19;4.70;;;3.67;;
18574;SDS011;9417;16.484;102.872;2023-08-24T10:23:36;8.13;;;4.32;;
18574;SDS011;9417;16.484;102.872;2023-08-24T10:25:45;12.32;;;5.22;;
18574;SDS011;9417;16.484;102.872;2023-08-24T10:27:54;9.73;;;5.20;;
18574;SDS011;9417;16.484;102.872;2023-08-24T10:30:04;6.78;;;4.78;;
18574;SDS011;9417;16.484;102.872;2023-08-24T10:32:12;7.30;;;4.95;;
18574;SDS011;9417;16.484;102.872;2023-08-24T10:34:22;8.82;;;4.88;;
18574;SDS011;9417;16.484;102.872;2023-08-24T10:36:30;8.77;;;4.47;;
18574;SDS011;9417;16.484;102.872;2023-08-24T10:38:40;6.72;;;4.55;;
18574;SDS011;9417;16.484;102.872;2023-08-24T10:40:48;8.40;;;5.03;;
18574;SDS011;9417;16.484;102.872;2023-08-24T10:42:57;12.60;;;4.80;;
18574;SDS011;9417;16.484;102.872;2023-08-24T10:45:08;10.83;;;6.10;;
18574;SDS011;9417;16.484;102.872;2023-08-24T10:47:17;10.55;;;6.30;;
18574;SDS011;9417;16.484;102.872;2023-08-24T10:49:28;19.70;;;10.98;;
18574;SDS011;9417;16.484;102.872;2023-08-24T10:51:43;17.30;;;10.63;;
18574;SDS011;9417;16.484;102.872;2023-08-24T10:53:53;19.52;;;11.73;;
18574;SDS011;9417;16.484;102.872;2023-08-24T10:58:16;12.80;;;9.77;;
18574;SDS011;9417;16.484;102.872;2023-08-24T11:00:27;13.05;;;9.90;;
18574;SDS011;9417;16.484;102.872;2023-08-24T11:02:41;13.32;;;8.80;;
18574;SDS011;9417;16.484;102.872;2023-08-24T11:05:12;14.07;;;9.15;;
18574;SDS011;9417;16.484;102.872;2023-08-24T11:07:22;19.45;;;11.27;;
18574;SDS011;9417;16.484;102.872;2023-08-24T11:09:44;13.27;;;9.07;;
18574;SDS011;9417;16.484;102.872;2023-08-24T11:11:55;18.02;;;11.07;;
18574;SDS011;9417;16.484;102.872;2023-08-24T11:18:47;15.85;;;10.50;;
18574;SDS011;9417;16.484;102.872;2023-08-24T11:21:01;22.05;;;12.73;;
18574;SDS011;9417;16.484;102.872;2023-08-24T11:23:09;20.77;;;12.52;;
18574;SDS011;9417;16.484;102.872;2023-08-24T11:25:15;22.92;;;13.63;;
18574;SDS011;9417;16.484;102.872;2023-08-24T11:27:23;21.45;;;13.05;;
18574;SDS011;9417;16.484;102.872;2023-08-24T11:29:30;25.67;;;13.95;;
18574;SDS011;9417;16.484;102.872;2023-08-24T11:31:37;21.25;;;13.50;;
18574;SDS011;9417;16.484;102.872;2023-08-24T11:33:45;19.90;;;12.88;;
18574;SDS011;9417;16.484;102.872;2023-08-24T11:35:52;23.15;;;12.32;;
18574;SDS011;9417;16.484;102.872;2023-08-24T11:38:02;19.45;;;12.73;;
18574;SDS011;9417;16.484;102.872;2023-08-24T11:40:16;17.63;;;11.82;;
18574;SDS011;9417;16.484;102.872;2023-08-24T11:42:24;17.30;;;11.35;;
18574;SDS011;9417;16.484;102.872;2023-08-24T11:44:44;15.07;;;9.82;;
18574;SDS011;9417;16.484;102.872;2023-08-24T11:46:52;16.00;;;9.95;;
18574;SDS011;9417;16.484;102.872;2023-08-24T11:49:02;14.68;;;9.95;;
18574;SDS011;9417;16.484;102.872;2023-08-24T11:51:12;16.17;;;9.05;;
18574;SDS011;9417;16.484;102.872;2023-08-24T11:53:33;19.13;;;10.25;;
18574;SDS011;9417;16.484;102.872;2023-08-24T11:55:43;12.80;;;8.25;;
18574;SDS011;9417;16.484;102.872;2023-08-24T11:58:13;11.73;;;7.10;;
18574;SDS011;9417;16.484;102.872;2023-08-24T12:00:21;9.90;;;6.75;;
18574;SDS011;9417;16.484;102.872;2023-08-24T12:02:30;10.50;;;7.68;;
18574;SDS011;9417;16.484;102.872;2023-08-24T12:04:38;11.27;;;7.93;;
18574;SDS011;9417;16.484;102.872;2023-08-24T12:06:46;10.75;;;7.20;;
18574;SDS011;9417;16.484;102.872;2023-08-24T12:08:55;11.15;;;7.22;;
18574;SDS011;9417;16.484;102.872;2023-08-24T12:11:03;13.70;;;8.52;;
18574;SDS011;9417;16.484;102.872;2023-08-24T12:13:16;11.73;;;8.25;;
18574;SDS011;9417;16.484;102.872;2023-08-24T12:15:23;10.18;;;8.20;;
18574;SDS011;9417;16.484;102.872;2023-08-24T12:17:42;11.05;;;8.13;;
18574;SDS011;9417;16.484;102.872;2023-08-24T12:19:56;12.77;;;8.63;;
18574;SDS011;9417;16.484;102.872;2023-08-24T12:22:12;12.32;;;9.05;;
18574;SDS011;9417;16.484;102.872;2023-08-24T12:24:22;19.10;;;17.33;;
18574;SDS011;9417;16.484;102.872;2023-08-24T12:26:29;15.35;;;11.80;;
18574;SDS011;9417;16.484;102.872;2023-08-24T12:28:38;15.05;;;11.88;;
18574;SDS011;9417;16.484;102.872;2023-08-24T12:30:46;15.07;;;13.57;;
18574;SDS011;9417;16.484;102.872;2023-08-24T12:32:55;13.32;;;11.93;;
18574;SDS011;9417;16.484;102.872;2023-08-24T12:35:03;11.05;;;8.55;;
18574;SDS011;9417;16.484;102.872;2023-08-24T12:37:11;13.18;;;9.25;;
18574;SDS011;9417;16.484;102.872;2023-08-24T12:39:18;10.85;;;8.98;;
18574;SDS011;9417;16.484;102.872;2023-08-24T12:41:28;10.48;;;9.05;;
18574;SDS011;9417;16.484;102.872;2023-08-24T12:43:35;11.02;;;9.02;;
18574;SDS011;9417;16.484;102.872;2023-08-24T12:45:44;15.63;;;9.52;;
18574;SDS011;9417;16.484;102.872;2023-08-24T12:47:52;12.38;;;9.75;;